createdAt,value
2018-12-15T00:00:04.398Z,39.60
2018-12-15T00:02:48.992Z,36.50
2018-12-15T00:05:32.036Z,34.47
2018-12-15T00:08:18.090Z,36.40
2018-12-15T00:11:01.253Z,37.17
2018-12-15T00:13:44.840Z,36.03
2018-12-15T00:16:28.273Z,37.53
2018-12-15T00:19:10.984Z,35.40
2018-12-15T00:21:54.269Z,34.93
2018-12-15T00:24:38.620Z,34.93
2018-12-15T00:27:23.432Z,37.23
2018-12-15T00:30:07.040Z,36.53
2018-12-15T00:32:50.311Z,34.27
2018-12-15T00:35:33.010Z,36.53
2018-12-15T00:38:16.404Z,34.37
2018-12-15T00:40:59.837Z,34.30
2018-12-15T00:43:43.681Z,37.00
2018-12-15T00:46:27.394Z,34.33
2018-12-15T00:49:10.137Z,37.70
2018-12-15T00:51:55.077Z,34.90
2018-12-15T00:54:39.521Z,38.23
2018-12-15T00:57:23.034Z,40.00
2018-12-15T01:00:06.553Z,33.57
2018-12-15T01:02:53.277Z,36.23
2018-12-15T01:05:36.082Z,36.13
2018-12-15T01:08:21.673Z,36.37
2018-12-15T01:11:06.222Z,36.07
2018-12-15T01:13:49.569Z,34.27
2018-12-15T01:16:32.584Z,35.40
2018-12-15T01:19:15.290Z,32.37
2018-12-15T01:21:57.875Z,38.50
2018-12-15T01:24:41.327Z,35.50
2018-12-15T01:27:24.168Z,35.00
2018-12-15T01:30:08.226Z,32.50
2018-12-15T01:32:51.409Z,36.93
2018-12-15T01:35:35.163Z,34.13
2018-12-15T01:38:21.509Z,35.50
2018-12-15T01:41:04.756Z,34.10
2018-12-15T01:43:54.100Z,35.57
2018-12-15T01:46:37.880Z,36.30
2018-12-15T01:49:20.491Z,33.90
2018-12-15T01:52:03.533Z,30.63
2018-12-15T01:54:46.870Z,30.93
2018-12-15T01:57:29.138Z,31.17
2018-12-15T02:00:13.713Z,29.07
2018-12-15T02:02:56.987Z,30.63
2018-12-15T02:05:40.704Z,33.40
2018-12-15T02:08:24.353Z,25.80
2018-12-15T02:11:07.339Z,28.67
2018-12-15T02:13:49.510Z,25.47
2018-12-15T02:16:32.332Z,26.63
2018-12-15T02:19:14.578Z,28.97
2018-12-15T02:21:57.373Z,26.47
2018-12-15T02:24:40.909Z,30.07
2018-12-15T02:27:24.052Z,25.63
2018-12-15T02:30:07.239Z,31.30
2018-12-15T02:32:50.403Z,25.23
2018-12-15T02:35:33.929Z,27.07
2018-12-15T02:38:17.265Z,31.80
2018-12-15T02:41:00.836Z,28.37
2018-12-15T02:43:43.126Z,25.70
2018-12-15T02:46:25.621Z,27.90
2018-12-15T02:49:09.673Z,26.57
2018-12-15T02:51:52.771Z,28.27
2018-12-15T02:54:36.512Z,33.03
2018-12-15T02:57:21.313Z,28.23
2018-12-15T03:00:04.910Z,29.43
2018-12-15T03:02:48.380Z,30.73
2018-12-15T03:05:36.417Z,27.63
2018-12-15T03:08:19.110Z,31.43
2018-12-15T03:11:02.797Z,28.23
2018-12-15T03:13:46.519Z,27.67
2018-12-15T03:16:30.755Z,28.27
2018-12-15T03:19:14.500Z,27.87
2018-12-15T03:21:58.291Z,28.83
2018-12-15T03:24:41.087Z,26.30
2018-12-15T03:27:23.897Z,28.50
2018-12-15T03:30:07.421Z,31.97
2018-12-15T03:32:50.061Z,28.13
2018-12-15T03:35:32.839Z,28.17
2018-12-15T03:38:15.928Z,29.93
2018-12-15T03:40:58.610Z,27.63
2018-12-15T03:43:42.053Z,30.93
2018-12-15T03:46:25.078Z,31.37
2018-12-15T03:49:08.039Z,28.70
2018-12-15T03:51:51.476Z,31.93
2018-12-15T03:54:34.456Z,28.20
2018-12-15T03:57:18.086Z,28.77
2018-12-15T04:00:03.409Z,30.53
2018-12-15T04:02:46.103Z,30.83
2018-12-15T04:05:29.446Z,30.07
2018-12-15T04:08:12.159Z,27.83
2018-12-15T04:10:55.725Z,27.77
2018-12-15T04:13:39.060Z,30.63
2018-12-15T04:16:23.237Z,31.80
2018-12-15T04:19:06.246Z,30.67
2018-12-15T04:21:49.353Z,29.80
2018-12-15T04:24:33.188Z,29.87
2018-12-15T04:27:16.781Z,29.20
2018-12-15T04:29:59.294Z,30.07
2018-12-15T04:32:45.138Z,28.60
2018-12-15T04:35:27.277Z,28.93
2018-12-15T04:38:10.112Z,29.27
2018-12-15T04:40:53.381Z,28.93
2018-12-15T04:43:37.006Z,30.83
2018-12-15T04:46:19.371Z,32.70
2018-12-15T04:49:03.141Z,28.37
2018-12-15T04:51:45.595Z,32.13
2018-12-15T04:54:28.925Z,34.57
2018-12-15T04:57:11.388Z,32.87
2018-12-15T04:59:55.337Z,33.83
2018-12-15T05:02:43.648Z,34.07
2018-12-15T05:05:22.279Z,33.03
2018-12-15T05:08:05.589Z,30.60
2018-12-15T05:10:48.596Z,30.50
2018-12-15T05:13:30.992Z,34.00
2018-12-15T05:16:15.754Z,37.90
2018-12-15T05:18:58.110Z,29.23
2018-12-15T05:21:41.497Z,33.43
2018-12-15T05:24:24.302Z,29.53
2018-12-15T05:27:09.323Z,29.17
2018-12-15T05:29:53.382Z,36.17
2018-12-15T05:32:37.193Z,33.97
2018-12-15T05:35:21.345Z,30.60
2018-12-15T05:38:03.913Z,34.33
2018-12-15T05:40:48.142Z,33.87
2018-12-15T05:43:31.881Z,34.93
2018-12-15T05:46:14.725Z,32.33
2018-12-15T05:48:57.879Z,29.20
2018-12-15T05:51:42.140Z,33.80
2018-12-15T05:54:25.937Z,31.80
2018-12-15T05:57:08.771Z,32.63
2018-12-15T05:59:52.101Z,31.97
2018-12-15T06:02:36.973Z,34.73
2018-12-15T06:05:21.100Z,34.97
2018-12-15T06:08:04.249Z,33.03
2018-12-15T06:10:47.516Z,32.57
2018-12-15T06:13:31.337Z,37.23
2018-12-15T06:16:15.294Z,33.17
2018-12-15T06:18:58.913Z,32.00
2018-12-15T06:21:43.268Z,33.27
2018-12-15T06:24:27.076Z,35.83
2018-12-15T06:27:09.864Z,35.27
2018-12-15T06:29:52.869Z,38.93
2018-12-15T06:32:35.984Z,40.37
2018-12-15T06:35:19.809Z,33.27
2018-12-15T06:38:03.751Z,37.03
2018-12-15T06:40:46.057Z,33.63
2018-12-15T06:43:30.001Z,34.47
2018-12-15T06:46:12.941Z,37.80
2018-12-15T06:48:57.273Z,34.60
2018-12-15T06:51:43.876Z,40.90
2018-12-15T06:54:30.189Z,34.13
2018-12-15T06:57:14.837Z,37.27
2018-12-15T06:59:58.479Z,38.13
2018-12-15T07:02:43.138Z,34.80
2018-12-15T07:05:26.705Z,37.50
2018-12-15T07:08:10.191Z,37.40
2018-12-15T07:10:55.627Z,44.30
2018-12-15T07:13:39.845Z,37.87
2018-12-15T07:16:26.433Z,36.50
2018-12-15T07:19:09.122Z,41.87
2018-12-15T07:21:58.512Z,36.67
2018-12-15T07:24:41.330Z,40.27
2018-12-15T07:27:26.471Z,41.33
2018-12-15T07:30:09.732Z,38.57
2018-12-15T07:32:53.984Z,40.70
2018-12-15T07:35:37.237Z,38.60
2018-12-15T07:38:21.294Z,39.23
2018-12-15T07:41:04.181Z,39.63
2018-12-15T07:43:47.792Z,39.57
2018-12-15T07:46:31.878Z,38.53
2018-12-15T07:49:14.817Z,37.37
2018-12-15T07:51:58.650Z,34.53
2018-12-15T07:54:42.285Z,35.73
2018-12-15T07:57:28.102Z,33.40
2018-12-15T08:00:11.514Z,31.93
2018-12-15T08:02:55.843Z,34.97
2018-12-15T08:05:39.056Z,31.00
2018-12-15T08:08:25.535Z,35.30
2018-12-15T08:11:14.497Z,30.43
2018-12-15T08:14:06.961Z,35.47
2018-12-15T08:16:50.956Z,33.73
2018-12-15T08:19:34.725Z,30.93
2018-12-15T08:22:25.950Z,32.30
2018-12-15T08:25:06.256Z,32.80
2018-12-15T08:27:49.832Z,32.93
2018-12-15T08:30:33.109Z,31.13
2018-12-15T08:33:15.593Z,35.13
2018-12-15T08:35:59.312Z,35.60
2018-12-15T08:38:43.049Z,31.10
2018-12-15T08:41:27.540Z,29.80
2018-12-15T08:44:13.145Z,29.07
2018-12-15T08:46:56.636Z,26.83
2018-12-15T08:49:39.833Z,31.20
2018-12-15T08:52:23.792Z,31.90
2018-12-15T08:55:08.735Z,36.57
2018-12-15T08:57:52.246Z,30.20
2018-12-15T09:00:36.981Z,28.77
2018-12-15T09:03:27.164Z,26.77
2018-12-15T09:06:10.368Z,28.37
2018-12-15T09:08:53.151Z,29.60
2018-12-15T09:11:37.933Z,28.70
2018-12-15T09:14:21.032Z,30.57
2018-12-15T09:17:07.075Z,32.37
2018-12-15T09:19:52.157Z,28.30
2018-12-15T09:22:36.284Z,29.93
2018-12-15T09:25:21.861Z,25.87
2018-12-15T09:28:06.162Z,24.20
2018-12-15T09:30:50.873Z,24.87
2018-12-15T09:33:34.181Z,27.43
2018-12-15T09:36:18.470Z,29.87
2018-12-15T09:39:05.025Z,33.53
2018-12-15T09:41:49.689Z,26.73
2018-12-15T09:44:35.321Z,28.23
2018-12-15T09:47:20.701Z,27.50
2018-12-15T09:50:05.538Z,27.83
2018-12-15T09:52:52.260Z,30.13
2018-12-15T09:55:40.536Z,30.73
2018-12-15T09:58:25.305Z,31.30
2018-12-15T10:01:10.189Z,30.23
2018-12-15T10:03:55.487Z,30.07
2018-12-15T10:06:40.522Z,26.73
2018-12-15T10:09:25.579Z,27.23
2018-12-15T10:12:11.496Z,28.03
2018-12-15T10:14:56.227Z,28.07
2018-12-15T10:17:43.091Z,28.77
2018-12-15T10:20:33.034Z,33.67
2018-12-15T10:23:16.641Z,31.20
2018-12-15T10:26:01.190Z,28.73
2018-12-15T10:28:44.539Z,29.67
2018-12-15T10:31:32.736Z,30.50
2018-12-15T10:34:16.485Z,29.20
2018-12-15T10:37:00.120Z,30.53
2018-12-15T10:39:44.369Z,30.33
2018-12-15T10:42:28.828Z,27.97
2018-12-15T10:45:11.907Z,26.30
2018-12-15T10:47:56.142Z,28.13
2018-12-15T10:50:41.043Z,29.67
2018-12-15T10:53:24.965Z,31.13
2018-12-15T10:56:09.120Z,29.43
2018-12-15T10:58:54.758Z,31.07
2018-12-15T11:04:29.860Z,31.70
2018-12-15T11:07:15.350Z,28.27
2018-12-15T11:09:58.342Z,29.93
2018-12-15T11:12:41.663Z,35.07
2018-12-15T11:15:26.209Z,36.87
2018-12-15T11:18:09.609Z,29.13
2018-12-15T11:20:52.452Z,28.30
2018-12-15T11:23:37.116Z,31.83
2018-12-15T11:26:20.876Z,29.10
2018-12-15T11:29:05.639Z,26.03
2018-12-15T11:31:50.158Z,26.60
2018-12-15T11:34:34.808Z,22.13
2018-12-15T11:37:17.967Z,27.20
2018-12-15T11:40:01.713Z,26.70
2018-12-15T11:42:45.369Z,28.20
2018-12-15T11:45:30.421Z,23.13
2018-12-15T11:48:13.399Z,30.57
2018-12-15T11:50:58.041Z,24.13
2018-12-15T11:53:44.693Z,27.53
2018-12-15T11:56:30.349Z,15.70
2018-12-15T11:59:15.031Z,29.30
2018-12-15T12:01:57.483Z,24.03
2018-12-15T12:04:42.867Z,26.27
2018-12-15T12:07:25.736Z,28.13
2018-12-15T12:10:08.705Z,29.30
2018-12-15T12:12:51.958Z,26.17
2018-12-15T12:15:36.788Z,23.83
2018-12-15T12:18:20.209Z,29.83
2018-12-15T12:21:05.346Z,22.87
2018-12-15T12:23:48.256Z,23.23
2018-12-15T12:26:32.987Z,24.37
2018-12-15T12:29:17.049Z,25.50
2018-12-15T12:32:01.712Z,25.00
2018-12-15T12:34:45.179Z,26.10
2018-12-15T12:37:29.866Z,25.90
2018-12-15T12:40:13.169Z,23.97
2018-12-15T12:43:15.857Z,25.00
2018-12-15T12:45:59.592Z,30.53
2018-12-15T12:48:42.674Z,21.67
2018-12-15T12:51:25.828Z,24.47
2018-12-15T12:54:22.988Z,17.90
2018-12-15T12:57:07.625Z,26.20
2018-12-15T12:59:52.716Z,23.77
2018-12-15T13:02:40.057Z,27.47
2018-12-15T13:05:25.634Z,22.47
2018-12-15T13:08:08.986Z,24.97
2018-12-15T13:10:52.236Z,24.77
2018-12-15T13:13:36.399Z,27.03
2018-12-15T13:16:19.753Z,22.63
2018-12-15T13:19:05.309Z,26.40
2018-12-15T13:21:48.328Z,27.77
2018-12-15T13:24:31.321Z,27.73
2018-12-15T13:27:15.535Z,28.40
2018-12-15T13:30:01.459Z,22.53
2018-12-15T13:32:47.864Z,29.03
2018-12-15T13:35:36.698Z,25.00
2018-12-15T13:38:22.617Z,28.70
2018-12-15T13:41:06.636Z,24.33
2018-12-15T13:43:51.469Z,27.83
2018-12-15T13:46:36.029Z,30.03
2018-12-15T13:49:21.985Z,28.60
2018-12-15T13:52:06.489Z,28.20
2018-12-15T13:54:50.567Z,27.93
2018-12-15T13:57:35.052Z,24.20
2018-12-15T14:00:19.851Z,28.57
2018-12-15T14:03:06.413Z,24.87
2018-12-15T14:05:50.123Z,32.23
2018-12-15T14:08:34.313Z,27.20
2018-12-15T14:11:18.377Z,23.43
2018-12-15T14:14:05.201Z,25.10
2018-12-15T14:16:49.022Z,27.00
2018-12-15T14:19:34.653Z,34.83
2018-12-15T14:22:17.962Z,28.50
2018-12-15T14:25:02.735Z,27.43
2018-12-15T14:27:47.778Z,27.37
2018-12-15T14:30:34.026Z,25.33
2018-12-15T14:33:18.533Z,22.73
2018-12-15T14:36:02.581Z,26.17
2018-12-15T14:38:45.410Z,31.77
2018-12-15T14:41:33.428Z,27.13
2018-12-15T14:44:18.190Z,28.80
2018-12-15T14:47:05.300Z,26.90
2018-12-15T14:49:49.544Z,24.37
2018-12-15T14:52:33.888Z,24.80
2018-12-15T14:55:23.348Z,29.33
2018-12-15T14:58:08.653Z,28.67
2018-12-15T15:00:57.261Z,25.30
2018-12-15T15:03:40.711Z,23.37
2018-12-15T15:06:25.921Z,30.37
2018-12-15T15:09:10.743Z,25.53
2018-12-15T15:11:56.116Z,29.43
2018-12-15T15:14:41.958Z,29.67
2018-12-15T15:17:28.440Z,28.40
2018-12-15T15:20:12.055Z,27.00
2018-12-15T15:22:55.229Z,29.47
2018-12-15T15:25:38.336Z,29.10
2018-12-15T15:28:23.475Z,26.10
2018-12-15T15:31:09.358Z,26.00
2018-12-15T15:33:53.416Z,27.77
2018-12-15T15:36:42.069Z,28.43
2018-12-15T15:39:25.933Z,22.27
2018-12-15T15:42:09.972Z,23.10
2018-12-15T15:44:59.758Z,27.43
2018-12-15T15:47:46.493Z,25.77
2018-12-15T15:50:36.306Z,26.53
2018-12-15T15:53:15.475Z,28.90
2018-12-15T15:55:59.926Z,24.40
2018-12-15T15:58:44.733Z,29.97
2018-12-15T16:01:28.724Z,25.97
2018-12-15T16:04:12.783Z,28.13
2018-12-15T16:06:56.926Z,25.03
2018-12-15T16:09:45.017Z,26.53
2018-12-15T16:12:28.010Z,29.73
2018-12-15T16:15:11.923Z,27.70
2018-12-15T16:17:56.778Z,28.77
2018-12-15T16:20:43.409Z,29.43
2018-12-15T16:23:27.664Z,26.93
2018-12-15T16:26:13.690Z,29.57
2018-12-15T16:28:58.606Z,27.67
2018-12-15T16:31:48.885Z,26.37
2018-12-15T16:34:37.130Z,24.80
2018-12-15T16:37:22.832Z,24.57
2018-12-15T16:40:09.157Z,24.17
2018-12-15T16:42:55.196Z,30.93
2018-12-15T16:45:39.704Z,24.53
2018-12-15T16:48:23.237Z,24.77
2018-12-15T16:51:06.093Z,25.93
2018-12-15T16:53:49.026Z,30.23
2018-12-15T16:56:33.391Z,30.17
2018-12-15T16:59:23.871Z,28.67
2018-12-15T17:02:10.111Z,29.37
2018-12-15T17:04:55.280Z,29.97
2018-12-15T17:07:44.134Z,28.53
2018-12-15T17:10:27.502Z,30.80
2018-12-15T17:13:10.998Z,30.80
2018-12-15T17:15:54.562Z,28.10
2018-12-15T17:18:38.239Z,29.17
2018-12-15T17:21:23.057Z,30.27
2018-12-15T17:24:06.366Z,38.13
2018-12-15T17:26:50.946Z,29.13
2018-12-15T17:29:33.972Z,29.93
2018-12-15T17:34:49.753Z,31.47
2018-12-15T17:37:34.004Z,31.57
2018-12-15T17:40:18.961Z,31.23
2018-12-15T17:43:03.268Z,30.33
2018-12-15T17:45:46.475Z,30.60
2018-12-15T17:48:30.485Z,34.60
2018-12-15T17:51:13.495Z,31.03
2018-12-15T17:53:57.824Z,32.30
2018-12-15T17:56:42.184Z,36.20
2018-12-15T17:59:25.925Z,35.60
2018-12-15T18:02:11.270Z,34.07
2018-12-15T18:04:54.625Z,30.70
2018-12-15T18:07:37.433Z,27.53
2018-12-15T18:10:21.024Z,30.90
2018-12-15T18:13:07.807Z,29.73
2018-12-15T18:15:52.749Z,29.50
2018-12-15T18:18:39.430Z,26.10
2018-12-15T18:21:24.445Z,30.03
2018-12-15T18:24:07.672Z,33.70
2018-12-15T18:26:52.457Z,30.93
2018-12-15T18:29:37.501Z,34.17
2018-12-15T18:32:22.954Z,29.13
2018-12-15T18:35:06.056Z,33.30
2018-12-15T18:37:49.146Z,29.77
2018-12-15T18:40:45.788Z,32.40
2018-12-15T18:43:29.122Z,30.27
2018-12-15T18:46:12.013Z,27.03
2018-12-15T18:48:56.401Z,32.67
2018-12-15T18:51:40.532Z,29.40
2018-12-15T18:54:25.178Z,26.97
2018-12-15T18:57:09.284Z,31.73
2018-12-15T18:59:52.409Z,30.90
2018-12-15T19:02:37.645Z,31.33
2018-12-15T19:05:22.496Z,34.60
2018-12-15T19:08:06.944Z,30.60
2018-12-15T19:10:51.285Z,26.43
2018-12-15T19:13:34.817Z,30.60
2018-12-15T19:16:17.464Z,29.80
2018-12-15T19:19:01.280Z,34.90
2018-12-15T19:21:45.785Z,30.20
2018-12-15T19:24:29.643Z,29.70
2018-12-15T19:27:13.497Z,29.53
2018-12-15T19:29:58.028Z,31.83
2018-12-15T19:32:41.678Z,32.73
2018-12-15T19:35:25.809Z,31.50
2018-12-15T19:38:10.552Z,36.87
2018-12-15T19:40:56.844Z,33.47
2018-12-15T19:43:40.216Z,34.83
2018-12-15T19:46:27.728Z,42.20
2018-12-15T19:49:13.534Z,38.00
2018-12-15T19:51:57.605Z,30.43
2018-12-15T19:54:41.833Z,36.63
2018-12-15T19:57:25.882Z,27.97
2018-12-15T20:00:10.710Z,27.10
2018-12-15T20:02:54.428Z,32.37
2018-12-15T20:05:38.239Z,23.27
2018-12-15T20:08:23.635Z,30.63
2018-12-15T20:11:06.370Z,28.43
2018-12-15T20:13:50.845Z,25.03
2018-12-15T20:16:36.568Z,27.00
2018-12-15T20:19:20.125Z,26.87
2018-12-15T20:22:03.901Z,27.10
2018-12-15T20:24:50.466Z,25.23
2018-12-15T20:27:33.416Z,27.40
2018-12-15T20:30:17.998Z,27.00
2018-12-15T20:33:05.339Z,26.17
2018-12-15T20:35:49.817Z,32.10
2018-12-15T20:38:33.483Z,27.50
2018-12-15T20:41:22.695Z,24.67
2018-12-15T20:44:05.274Z,29.80
2018-12-15T20:46:49.301Z,26.30
2018-12-15T20:49:34.965Z,25.23
2018-12-15T20:52:18.605Z,26.93
2018-12-15T20:55:03.532Z,23.93
2018-12-15T20:57:46.992Z,25.60
2018-12-15T21:00:30.593Z,27.43
2018-12-15T21:03:14.894Z,29.53
2018-12-15T21:05:59.040Z,28.13
2018-12-15T21:08:41.486Z,26.00
2018-12-15T21:11:25.544Z,26.03
2018-12-15T21:14:09.328Z,24.70
2018-12-15T21:16:52.765Z,24.60
2018-12-15T21:19:35.860Z,30.33
2018-12-15T21:26:03.809Z,23.63
2018-12-15T21:28:48.639Z,24.50
2018-12-15T21:31:32.268Z,29.30
2018-12-15T21:34:17.717Z,27.90
2018-12-15T21:37:03.403Z,22.63
2018-12-15T21:39:45.713Z,26.80
2018-12-15T21:42:31.747Z,26.20
2018-12-15T21:45:15.478Z,25.93
2018-12-15T21:48:00.466Z,25.37
2018-12-15T21:50:45.801Z,30.23
2018-12-15T21:53:29.965Z,25.87
2018-12-15T21:56:14.981Z,25.97
2018-12-15T21:58:59.120Z,25.90
2018-12-15T22:01:42.357Z,27.13
2018-12-15T22:04:27.571Z,27.17
2018-12-15T22:07:10.463Z,27.30
2018-12-15T22:09:55.138Z,27.30
2018-12-15T22:12:39.106Z,22.53
2018-12-15T22:15:24.322Z,25.90
2018-12-15T22:18:08.776Z,24.10
2018-12-15T22:20:54.995Z,19.43
2018-12-15T22:23:38.692Z,23.53
2018-12-15T22:26:22.542Z,18.47
2018-12-15T22:29:06.701Z,27.20
2018-12-15T22:31:50.269Z,18.43
2018-12-15T22:34:32.853Z,28.63
2018-12-15T22:37:17.007Z,24.00
2018-12-15T22:39:59.452Z,23.13
2018-12-15T22:42:47.565Z,25.13
2018-12-15T22:45:29.907Z,23.60
2018-12-15T22:48:12.601Z,22.37
2018-12-15T22:50:55.252Z,28.43
2018-12-15T22:53:39.434Z,22.77
2018-12-15T22:56:26.257Z,31.17
2018-12-15T22:59:10.900Z,27.20
2018-12-15T23:01:54.096Z,24.67
2018-12-15T23:04:37.042Z,27.90
2018-12-15T23:07:19.643Z,28.00
2018-12-15T23:10:02.932Z,26.67
2018-12-15T23:12:47.876Z,25.10
2018-12-15T23:15:32.983Z,25.97
2018-12-15T23:18:16.420Z,26.13
2018-12-15T23:21:00.409Z,23.23
2018-12-15T23:23:44.889Z,24.83
2018-12-15T23:26:28.085Z,24.90
2018-12-15T23:29:12.116Z,24.57
2018-12-15T23:31:54.884Z,23.23
2018-12-15T23:34:39.302Z,26.37
2018-12-15T23:37:23.449Z,27.23
2018-12-15T23:40:07.361Z,30.33
2018-12-15T23:42:50.724Z,25.80
2018-12-15T23:45:34.029Z,24.80
2018-12-15T23:48:44.427Z,23.90
2018-12-15T23:51:29.119Z,26.63
2018-12-15T23:54:15.167Z,23.23
2018-12-15T23:57:00.363Z,22.30
2018-12-15T23:59:48.740Z,23.10
